Time;durP1;ratioP1;P1;durP2;ratioP2;P2;SDS_P1;SDS_P2;PMS_P1;PMS_P2;Temp;Humidity;BMP_temperature;BMP_pressure;BME280_temperature;BME280_humidity;BME280_pressure;Samples;Min_cycle;Max_cycle;Signal;HPM_P1;HPM_P2
2023/07/24 00:02:16;;;;;;;;;;;23.40;55.80;;;;;;4984827;28;19934;-77
2023/07/24 00:04:42;;;;;;;;;;;23.30;55.90;;;;;;4981318;28;20673;-78
2023/07/24 00:07:09;;;;;;;;;;;23.30;55.90;;;;;;4986108;28;20756;-77
2023/07/24 00:09:35;;;;;;;;;;;23.30;56.10;;;;;;4981125;28;20589;-76
2023/07/24 00:12:02;;;;;;;;;;;23.30;56.10;;;;;;4985514;28;19926;-76
2023/07/24 00:14:30;;;;;;;;;;;23.30;56.20;;;;;;4985089;28;20708;-76
2023/07/24 00:16:56;;;;;;;;;;;23.20;56.20;;;;;;4986201;28;19929;-77
2023/07/24 00:19:23;;;;;;;;;;;23.20;56.40;;;;;;4983565;28;20327;-76
2023/07/24 00:21:50;;;;;;;;;;;23.20;57.00;;;;;;4986304;28;19941;-77
2023/07/24 00:24:16;;;;;;;;;;;23.10;56.40;;;;;;5003678;28;19930;-76
2023/07/24 00:26:43;;;;;;;;;;;23.10;56.50;;;;;;5001434;28;19940;-76
2023/07/24 00:29:09;;;;;;;;;;;23.10;56.60;;;;;;4984005;28;19961;-77
2023/07/24 00:31:37;;;;;;;;;;;23.10;56.70;;;;;;4980803;28;20408;-77
2023/07/24 00:34:04;;;;;;;;;;;23.10;56.80;;;;;;4981926;28;19938;-77
2023/07/24 00:36:30;;;;;;;;;;;23.10;56.90;;;;;;4980315;28;19929;-78
2023/07/24 00:38:57;;;;;;;;;;;23.00;57.00;;;;;;4981704;28;20386;-77
2023/07/24 00:41:23;;;;;;;;;;;23.00;57.00;;;;;;4982765;28;19929;-79
2023/07/24 00:43:50;;;;;;;;;;;23.00;57.20;;;;;;4983516;28;20690;-76
2023/07/24 00:46:16;;;;;;;;;;;23.00;57.20;;;;;;4980828;28;20391;-77
2023/07/24 00:48:44;;;;;;;;;;;22.90;57.40;;;;;;4980571;28;19930;-77
2023/07/24 00:51:11;;;;;;;;;;;22.90;57.50;;;;;;4984090;28;19984;-78
2023/07/24 00:53:37;;;;;;;;;;;22.90;57.70;;;;;;4982904;28;20380;-76
2023/07/24 00:56:05;;;;;;;;;;;22.90;57.90;;;;;;4983667;28;19934;-78
2023/07/24 00:58:31;;;;;;;;;;;22.80;57.90;;;;;;4983275;28;19937;-76
2023/07/24 01:00:58;;;;;;;;;;;22.80;58.10;;;;;;4980334;28;19940;-77
2023/07/24 01:03:31;;;;;;;;;;;22.80;58.10;;;;;;4982138;28;20431;-76
2023/07/24 01:06:00;;;;;;;;;;;22.70;58.20;;;;;;4980967;28;19954;-77
2023/07/24 01:08:26;;;;;;;;;;;22.70;58.30;;;;;;4981562;28;20046;-76
2023/07/24 01:10:53;;;;;;;;;;;22.70;58.40;;;;;;4978588;28;19930;-77
2023/07/24 01:13:21;;;;;;;;;;;22.70;58.40;;;;;;4982882;28;19926;-77
2023/07/24 01:15:51;;;;;;;;;;;22.70;58.50;;;;;;4978430;28;19988;-76
2023/07/24 01:18:18;;;;;;;;;;;22.70;58.60;;;;;;4983694;28;19930;-77
2023/07/24 01:20:49;;;;;;;;;;;22.70;58.70;;;;;;4976858;28;20311;-75
2023/07/24 01:23:33;;;;;;;;;;;22.60;58.70;;;;;;4981402;28;20411;-76
2023/07/24 01:26:02;;;;;;;;;;;22.60;58.80;;;;;;4979901;28;19926;-76
2023/07/24 01:28:28;;;;;;;;;;;22.60;58.90;;;;;;4978580;28;19930;-76
2023/07/24 01:30:55;;;;;;;;;;;22.50;58.90;;;;;;4979811;28;19984;-77
2023/07/24 01:33:22;;;;;;;;;;;22.50;58.90;;;;;;4976703;28;19945;-77
2023/07/24 01:35:51;;;;;;;;;;;22.50;59.00;;;;;;4982128;28;20028;-77
2023/07/24 01:38:17;;;;;;;;;;;22.50;59.00;;;;;;4982834;28;20020;-76
2023/07/24 01:40:44;;;;;;;;;;;22.50;59.10;;;;;;4982807;28;19934;-75
2023/07/24 01:43:12;;;;;;;;;;;22.50;59.10;;;;;;4977717;28;20351;-77
2023/07/24 01:45:39;;;;;;;;;;;22.50;59.20;;;;;;4981975;28;19937;-76
2023/07/24 01:48:05;;;;;;;;;;;22.40;59.20;;;;;;4983912;28;19936;-77
2023/07/24 01:50:32;;;;;;;;;;;22.40;59.30;;;;;;4982895;28;19969;-75
2023/07/24 01:52:59;;;;;;;;;;;22.40;59.30;;;;;;4982216;28;19937;-77
2023/07/24 01:55:25;;;;;;;;;;;22.40;59.40;;;;;;4983908;28;19933;-77
2023/07/24 01:57:52;;;;;;;;;;;22.40;59.50;;;;;;4983891;28;19953;-76
2023/07/24 02:00:20;;;;;;;;;;;22.30;59.50;;;;;;4982667;28;19930;-76
2023/07/24 02:02:46;;;;;;;;;;;22.30;59.60;;;;;;4978111;28;19934;-76
2023/07/24 02:05:13;;;;;;;;;;;22.30;59.70;;;;;;4978265;28;20422;-77
2023/07/24 02:07:40;;;;;;;;;;;22.30;59.80;;;;;;4979744;28;19934;-77
2023/07/24 02:10:07;;;;;;;;;;;22.30;59.90;;;;;;4982232;28;19929;-77
2023/07/24 02:12:33;;;;;;;;;;;22.30;60.00;;;;;;4980354;28;19941;-77
2023/07/24 02:15:00;;;;;;;;;;;22.20;60.00;;;;;;4979780;28;19930;-76
2023/07/24 02:17:27;;;;;;;;;;;22.20;60.10;;;;;;4973325;28;20459;-77
2023/07/24 02:19:54;;;;;;;;;;;22.20;60.30;;;;;;4978253;28;20600;-76
2023/07/24 02:22:21;;;;;;;;;;;22.20;60.40;;;;;;4977925;28;19936;-78
2023/07/24 02:24:47;;;;;;;;;;;22.10;60.50;;;;;;4979700;28;19934;-76
2023/07/24 02:27:14;;;;;;;;;;;22.10;60.50;;;;;;4977874;28;19930;-76
2023/07/24 02:29:41;;;;;;;;;;;22.10;60.60;;;;;;4980817;28;20020;-76
2023/07/24 02:32:08;;;;;;;;;;;22.10;60.70;;;;;;4979746;28;19930;-77
2023/07/24 02:34:36;;;;;;;;;;;22.10;60.70;;;;;;4978789;28;19926;-76
2023/07/24 02:37:02;;;;;;;;;;;22.10;60.80;;;;;;4979300;28;19933;-77
2023/07/24 02:39:29;;;;;;;;;;;22.10;60.90;;;;;;4980283;28;19941;-78
2023/07/24 02:41:55;;;;;;;;;;;22.00;60.80;;;;;;4979775;28;19929;-77
2023/07/24 02:44:22;;;;;;;;;;;22.00;61.00;;;;;;4978390;28;21101;-77
2023/07/24 02:46:48;;;;;;;;;;;22.00;61.00;;;;;;4977108;28;20509;-77
2023/07/24 02:49:15;;;;;;;;;;;22.00;61.10;;;;;;4977136;28;20772;-77
2023/07/24 02:51:43;;;;;;;;;;;22.00;61.20;;;;;;4978558;28;19941;-76
2023/07/24 02:54:09;;;;;;;;;;;22.00;61.20;;;;;;4978322;28;19937;-76
2023/07/24 02:56:36;;;;;;;;;;;21.90;61.30;;;;;;4978547;28;19934;-76
2023/07/24 02:59:02;;;;;;;;;;;21.90;61.30;;;;;;4985077;28;19930;-76
2023/07/24 03:01:29;;;;;;;;;;;21.90;61.40;;;;;;4986814;28;19930;-77
2023/07/24 03:03:55;;;;;;;;;;;21.90;61.50;;;;;;4984547;28;19930;-76
2023/07/24 03:06:22;;;;;;;;;;;21.90;61.60;;;;;;4980675;28;19929;-76
2023/07/24 03:08:50;;;;;;;;;;;21.90;61.60;;;;;;4982122;28;19953;-76
2023/07/24 03:11:17;;;;;;;;;;;21.90;61.70;;;;;;4986049;28;19933;-76
2023/07/24 03:13:43;;;;;;;;;;;21.90;61.70;;;;;;4984483;28;19933;-77
2023/07/24 03:16:10;;;;;;;;;;;21.80;61.80;;;;;;4985466;28;19992;-77
2023/07/24 03:18:36;;;;;;;;;;;21.80;61.80;;;;;;4980849;28;19936;-76
2023/07/24 03:21:03;;;;;;;;;;;21.80;61.90;;;;;;4984462;28;19930;-79
2023/07/24 03:23:30;;;;;;;;;;;21.80;62.20;;;;;;4979890;28;19930;-77
2023/07/24 03:25:58;;;;;;;;;;;21.80;62.60;;;;;;4982088;28;19937;-77
2023/07/24 03:28:25;;;;;;;;;;;21.80;62.70;;;;;;4982018;28;19959;-77
2023/07/24 03:30:51;;;;;;;;;;;21.80;63.00;;;;;;4984300;28;20579;-76
2023/07/24 03:33:18;;;;;;;;;;;21.70;63.00;;;;;;4985539;28;19984;-76
2023/07/24 03:35:44;;;;;;;;;;;21.70;63.20;;;;;;4982218;28;19934;-77
2023/07/24 03:38:11;;;;;;;;;;;21.70;63.40;;;;;;4982681;28;19930;-76
2023/07/24 03:40:37;;;;;;;;;;;21.70;63.60;;;;;;4983491;28;20043;-77
2023/07/24 03:43:05;;;;;;;;;;;21.60;64.10;;;;;;4982664;28;20372;-76
2023/07/24 03:45:32;;;;;;;;;;;21.60;63.80;;;;;;4980820;28;20462;-76
2023/07/24 03:47:58;;;;;;;;;;;21.60;63.90;;;;;;4981727;28;19930;-77
2023/07/24 03:50:25;;;;;;;;;;;21.60;64.20;;;;;;4984598;28;19929;-78
2023/07/24 03:52:51;;;;;;;;;;;21.60;64.40;;;;;;4982857;28;19933;-77
2023/07/24 03:55:18;;;;;;;;;;;21.60;64.60;;;;;;4984742;28;19930;-76
2023/07/24 03:57:44;;;;;;;;;;;21.60;64.60;;;;;;4985077;28;20426;-76
2023/07/24 04:00:13;;;;;;;;;;;21.60;64.60;;;;;;4984049;28;19941;-77
2023/07/24 04:02:40;;;;;;;;;;;21.50;65.30;;;;;;4985033;28;19934;-77
2023/07/24 04:05:07;;;;;;;;;;;21.50;64.50;;;;;;4983701;28;19985;-76
2023/07/24 04:07:33;;;;;;;;;;;21.50;64.50;;;;;;4986933;28;19933;-76
2023/07/24 04:10:00;;;;;;;;;;;21.50;64.60;;;;;;4984440;28;19933;-77
2023/07/24 04:12:26;;;;;;;;;;;21.50;64.80;;;;;;4981298;28;19937;-77
2023/07/24 04:14:53;;;;;;;;;;;21.50;64.90;;;;;;4984901;28;19933;-76
2023/07/24 04:17:21;;;;;;;;;;;21.50;64.90;;;;;;4983408;28;20419;-76
2023/07/24 04:19:47;;;;;;;;;;;21.40;64.90;;;;;;4984492;28;20419;-76
2023/07/24 04:22:14;;;;;;;;;;;21.40;64.90;;;;;;4980984;28;19972;-76
2023/07/24 04:24:40;;;;;;;;;;;21.40;64.90;;;;;;4983014;28;19930;-78
2023/07/24 04:27:07;;;;;;;;;;;21.40;65.00;;;;;;4981657;28;19933;-77
2023/07/24 04:29:33;;;;;;;;;;;21.40;65.20;;;;;;4978216;28;19941;-80
2023/07/24 04:32:00;;;;;;;;;;;21.40;66.10;;;;;;4978955;28;19933;-78
2023/07/24 04:34:28;;;;;;;;;;;21.40;65.50;;;;;;4982981;28;19929;-77
2023/07/24 04:36:54;;;;;;;;;;;21.40;65.60;;;;;;4981661;28;19944;-77
2023/07/24 04:39:21;;;;;;;;;;;21.40;65.70;;;;;;4979118;28;19941;-78
2023/07/24 04:41:47;;;;;;;;;;;21.30;65.80;;;;;;4985002;28;19937;-77
2023/07/24 04:44:14;;;;;;;;;;;21.40;66.30;;;;;;4981039;28;19985;-77
2023/07/24 04:46:40;;;;;;;;;;;21.30;65.80;;;;;;4979843;28;20426;-76
2023/07/24 04:49:07;;;;;;;;;;;21.30;65.90;;;;;;4980574;28;19930;-77
2023/07/24 04:51:35;;;;;;;;;;;21.30;65.90;;;;;;4981804;28;19929;-76
2023/07/24 04:54:01;;;;;;;;;;;21.30;68.10;;;;;;4982604;28;19937;-76
2023/07/24 04:56:28;;;;;;;;;;;21.20;70.80;;;;;;4980995;28;19937;-79
2023/07/24 04:58:54;;;;;;;;;;;21.00;71.60;;;;;;4981102;28;19941;-78
2023/07/24 05:01:21;;;;;;;;;;;20.90;71.50;;;;;;4976797;28;19980;-77
2023/07/24 05:03:47;;;;;;;;;;;20.90;71.30;;;;;;4983596;28;19937;-77
2023/07/24 05:06:14;;;;;;;;;;;20.90;71.00;;;;;;4981695;28;20431;-77
2023/07/24 05:08:42;;;;;;;;;;;20.90;70.70;;;;;;4979228;28;20323;-78
2023/07/24 05:11:08;;;;;;;;;;;20.90;70.50;;;;;;4976645;28;19929;-78
2023/07/24 05:13:35;;;;;;;;;;;21.00;70.40;;;;;;4982951;28;20043;-77
2023/07/24 05:16:01;;;;;;;;;;;21.00;70.20;;;;;;4981729;28;20351;-77
2023/07/24 05:18:28;;;;;;;;;;;21.00;70.00;;;;;;4980953;28;19934;-77
2023/07/24 05:20:54;;;;;;;;;;;21.00;69.80;;;;;;4977254;28;19938;-77
2023/07/24 05:23:21;;;;;;;;;;;21.00;69.70;;;;;;4978725;28;19984;-77
2023/07/24 05:25:56;;;;;;;;;;;21.00;69.60;;;;;;4980237;28;19949;-77
2023/07/24 05:28:23;;;;;;;;;;;21.00;69.40;;;;;;4979086;28;19934;-77
2023/07/24 05:30:49;;;;;;;;;;;21.10;69.40;;;;;;4982463;28;19937;-78
2023/07/24 05:33:16;;;;;;;;;;;21.00;69.30;;;;;;4981768;28;19974;-77
2023/07/24 05:35:43;;;;;;;;;;;21.10;69.40;;;;;;4976710;28;20434;-77
2023/07/24 05:38:09;;;;;;;;;;;21.00;69.20;;;;;;4981209;28;19929;-77
2023/07/24 05:40:36;;;;;;;;;;;21.00;69.20;;;;;;4981031;28;19937;-77
2023/07/24 05:43:04;;;;;;;;;;;21.00;69.00;;;;;;4980834;28;19951;-78
2023/07/24 05:45:30;;;;;;;;;;;21.00;69.00;;;;;;4981474;28;19941;-77
2023/07/24 05:47:57;;;;;;;;;;;21.10;68.90;;;;;;4982792;28;19929;-77
2023/07/24 05:50:23;;;;;;;;;;;21.10;68.90;;;;;;4985120;28;19937;-77
2023/07/24 05:52:50;;;;;;;;;;;21.10;68.60;;;;;;4984190;28;19930;-77
2023/07/24 05:55:17;;;;;;;;;;;21.00;68.50;;;;;;4983060;28;19930;-77
2023/07/24 05:57:43;;;;;;;;;;;21.10;68.70;;;;;;4983706;28;19937;-77
2023/07/24 06:00:11;;;;;;;;;;;21.10;68.40;;;;;;4983762;28;19930;-78
2023/07/24 06:02:38;;;;;;;;;;;21.10;68.40;;;;;;4977098;28;19932;-77
2023/07/24 06:05:05;;;;;;;;;;;21.10;68.40;;;;;;4979281;28;19934;-77
2023/07/24 06:07:31;;;;;;;;;;;21.10;68.50;;;;;;4982084;28;20408;-77
2023/07/24 06:09:58;;;;;;;;;;;21.10;68.50;;;;;;4979837;28;19930;-77
2023/07/24 06:12:24;;;;;;;;;;;21.10;68.40;;;;;;4978739;28;19934;-78
2023/07/24 06:14:51;;;;;;;;;;;21.10;68.40;;;;;;4983175;28;19929;-77
2023/07/24 06:17:19;;;;;;;;;;;21.10;68.30;;;;;;4984951;28;19993;-77
2023/07/24 06:19:46;;;;;;;;;;;21.10;68.40;;;;;;4977545;28;19957;-78
2023/07/24 06:22:12;;;;;;;;;;;21.10;69.00;;;;;;4982116;28;19930;-77
2023/07/24 06:24:39;;;;;;;;;;;21.10;68.20;;;;;;4981389;28;19936;-76
2023/07/24 06:27:07;;;;;;;;;;;21.10;68.20;;;;;;4981925;28;20403;-78
2023/07/24 06:29:33;;;;;;;;;;;21.10;68.20;;;;;;4975624;28;20016;-76
2023/07/24 06:32:00;;;;;;;;;;;21.10;68.10;;;;;;4978925;28;19930;-78
2023/07/24 06:34:28;;;;;;;;;;;21.10;68.00;;;;;;4980187;28;19938;-77
2023/07/24 06:36:54;;;;;;;;;;;21.10;68.00;;;;;;4981632;28;19930;-77
2023/07/24 06:39:21;;;;;;;;;;;21.10;67.90;;;;;;4978624;28;19941;-77
2023/07/24 06:41:47;;;;;;;;;;;21.10;67.80;;;;;;4981310;28;19973;-77
2023/07/24 06:44:14;;;;;;;;;;;21.10;67.90;;;;;;4980843;28;19956;-77
2023/07/24 06:46:40;;;;;;;;;;;21.20;68.00;;;;;;4981221;28;20423;-77
2023/07/24 06:49:07;;;;;;;;;;;21.10;67.90;;;;;;4977095;28;19930;-78
2023/07/24 06:51:35;;;;;;;;;;;21.20;67.90;;;;;;4979719;28;19937;-78
2023/07/24 06:54:02;;;;;;;;;;;21.20;67.80;;;;;;4979662;28;20411;-77
2023/07/24 06:56:29;;;;;;;;;;;21.20;67.70;;;;;;4978216;28;19934;-77
2023/07/24 06:58:55;;;;;;;;;;;21.20;67.60;;;;;;4976237;28;19930;-77
2023/07/24 07:01:22;;;;;;;;;;;21.20;67.40;;;;;;4982472;28;19937;-78
2023/07/24 07:03:48;;;;;;;;;;;21.20;67.40;;;;;;4979982;28;19934;-77
2023/07/24 07:06:15;;;;;;;;;;;21.20;67.50;;;;;;4979857;28;20288;-78
2023/07/24 07:08:43;;;;;;;;;;;21.30;67.50;;;;;;4981068;28;20432;-78
2023/07/24 07:11:09;;;;;;;;;;;21.30;67.20;;;;;;4976912;28;19930;-77
2023/07/24 07:13:36;;;;;;;;;;;21.30;67.20;;;;;;4980361;28;19933;-78
2023/07/24 07:16:03;;;;;;;;;;;21.30;67.20;;;;;;4984436;28;19936;-78
2023/07/24 07:18:29;;;;;;;;;;;21.30;67.20;;;;;;4980856;28;20382;-78
2023/07/24 07:20:56;;;;;;;;;;;21.30;67.20;;;;;;4981967;28;20328;-78
2023/07/24 07:23:22;;;;;;;;;;;21.30;67.00;;;;;;4978310;28;19929;-77
2023/07/24 07:25:51;;;;;;;;;;;21.40;66.80;;;;;;4979759;28;19977;-77
2023/07/24 07:28:18;;;;;;;;;;;21.30;66.50;;;;;;4976367;28;20296;-78
2023/07/24 07:30:45;;;;;;;;;;;21.40;66.80;;;;;;4983333;28;19936;-78
2023/07/24 07:33:12;;;;;;;;;;;21.40;66.70;;;;;;4979635;28;19937;-78
2023/07/24 07:35:38;;;;;;;;;;;21.40;67.00;;;;;;4977534;28;19948;-78
2023/07/24 07:38:05;;;;;;;;;;;21.40;67.20;;;;;;4981092;28;19930;-78
2023/07/24 07:40:31;;;;;;;;;;;21.40;67.30;;;;;;4981973;28;20293;-78
2023/07/24 07:42:59;;;;;;;;;;;21.40;67.10;;;;;;4976383;28;19934;-78
2023/07/24 07:45:26;;;;;;;;;;;21.40;67.20;;;;;;4981921;28;19996;-78
2023/07/24 07:47:53;;;;;;;;;;;21.40;67.20;;;;;;4983286;28;19934;-80
2023/07/24 07:50:19;;;;;;;;;;;21.40;67.20;;;;;;4980803;28;19930;-78
2023/07/24 07:52:46;;;;;;;;;;;21.40;67.30;;;;;;4984231;28;19930;-80
2023/07/24 07:55:13;;;;;;;;;;;21.40;67.50;;;;;;4978767;28;19930;-78
2023/07/24 07:57:40;;;;;;;;;;;21.40;67.90;;;;;;4984952;28;20376;-78
2023/07/24 08:00:08;;;;;;;;;;;21.40;68.20;;;;;;4983551;28;20388;-77
2023/07/24 08:02:35;;;;;;;;;;;21.40;68.70;;;;;;4986165;28;20415;-80
2023/07/24 08:05:01;;;;;;;;;;;21.40;69.00;;;;;;4984734;28;19933;-78
2023/07/24 08:07:28;;;;;;;;;;;21.40;69.30;;;;;;4986890;28;19941;-78
2023/07/24 08:09:56;;;;;;;;;;;21.40;69.70;;;;;;4982902;28;19977;-77
2023/07/24 08:12:22;;;;;;;;;;;21.40;70.10;;;;;;4979532;28;20479;-78
2023/07/24 08:14:49;;;;;;;;;;;21.40;70.60;;;;;;4992272;28;19934;-78
2023/07/24 08:17:17;;;;;;;;;;;21.40;71.00;;;;;;4987816;28;20007;-78
2023/07/24 08:19:43;;;;;;;;;;;21.30;71.30;;;;;;4985034;28;20427;-78
2023/07/24 08:22:10;;;;;;;;;;;21.40;72.30;;;;;;4989088;28;20311;-80
2023/07/24 08:24:37;;;;;;;;;;;21.40;71.90;;;;;;4984497;28;19937;-78
2023/07/24 08:27:03;;;;;;;;;;;21.40;72.30;;;;;;4987718;28;19930;-78
2023/07/24 08:29:30;;;;;;;;;;;21.40;72.30;;;;;;4983372;28;19930;-78
2023/07/24 08:31:56;;;;;;;;;;;21.40;72.50;;;;;;4984539;28;19937;-78
2023/07/24 08:34:25;;;;;;;;;;;21.30;72.60;;;;;;4983416;28;20000;-79
2023/07/24 08:36:51;;;;;;;;;;;21.30;72.70;;;;;;4983413;28;19930;-78
2023/07/24 08:39:18;;;;;;;;;;;21.30;72.70;;;;;;4985743;28;19930;-79
2023/07/24 08:41:44;;;;;;;;;;;21.30;72.80;;;;;;4986948;28;19937;-78
2023/07/24 08:44:11;;;;;;;;;;;21.40;72.80;;;;;;4986056;28;19945;-79
2023/07/24 08:46:41;;;;;;;;;;;21.40;72.70;;;;;;4977813;28;19933;-79
2023/07/24 08:49:07;;;;;;;;;;;21.30;72.70;;;;;;4982431;28;19930;-79
2023/07/24 08:51:35;;;;;;;;;;;21.40;73.00;;;;;;4977752;28;19931;-79
2023/07/24 08:54:03;;;;;;;;;;;21.40;73.20;;;;;;4976327;28;19930;-77
2023/07/24 08:56:30;;;;;;;;;;;21.40;73.40;;;;;;4982893;28;19933;-78
2023/07/24 08:58:57;;;;;;;;;;;21.40;73.60;;;;;;4977489;28;19941;-78
2023/07/24 09:01:23;;;;;;;;;;;21.40;73.90;;;;;;4982018;28;19930;-79
2023/07/24 09:03:50;;;;;;;;;;;21.40;74.00;;;;;;4990874;28;19930;-80
2023/07/24 09:06:16;;;;;;;;;;;21.40;73.90;;;;;;4988696;28;19930;-79
2023/07/24 09:08:44;;;;;;;;;;;21.50;74.10;;;;;;4985101;28;19937;-79
2023/07/24 09:11:14;;;;;;;;;;;21.50;74.50;;;;;;4980959;28;19952;-77
2023/07/24 09:13:42;;;;;;;;;;;21.50;74.90;;;;;;4985339;28;20285;-78
2023/07/24 09:16:09;;;;;;;;;;;21.50;74.80;;;;;;4984661;28;19961;-79
2023/07/24 09:18:39;;;;;;;;;;;21.50;74.80;;;;;;4984925;28;19947;-78
2023/07/24 09:21:06;;;;;;;;;;;21.50;74.90;;;;;;4983907;28;19930;-78
2023/07/24 09:23:32;;;;;;;;;;;21.60;75.20;;;;;;4975684;28;20012;-78
2023/07/24 09:26:05;;;;;;;;;;;21.60;75.10;;;;;;4976358;28;19934;-79
2023/07/24 09:28:33;;;;;;;;;;;21.70;75.20;;;;;;4983569;28;20431;-78
2023/07/24 09:31:00;;;;;;;;;;;21.70;75.40;;;;;;4984882;28;19930;-78
2023/07/24 09:33:35;;;;;;;;;;;21.70;75.50;;;;;;4984895;28;20431;-79
2023/07/24 09:36:02;;;;;;;;;;;21.80;75.50;;;;;;4978788;28;19937;-79
2023/07/24 09:38:29;;;;;;;;;;;21.80;75.60;;;;;;4986311;28;19949;-79
2023/07/24 09:40:57;;;;;;;;;;;21.80;75.90;;;;;;4981684;28;19941;-78
2023/07/24 09:43:25;;;;;;;;;;;21.80;76.00;;;;;;4982312;28;19930;-78
2023/07/24 09:45:53;;;;;;;;;;;21.90;76.00;;;;;;4987469;28;19930;-80
2023/07/24 09:48:20;;;;;;;;;;;21.90;76.10;;;;;;4986652;28;19934;-79
2023/07/24 09:50:47;;;;;;;;;;;21.90;76.20;;;;;;4979759;28;19929;-78
2023/07/24 09:53:16;;;;;;;;;;;21.90;76.40;;;;;;4984086;28;19937;-79
2023/07/24 09:55:47;;;;;;;;;;;21.90;76.20;;;;;;4987055;28;19945;-79
2023/07/24 09:58:14;;;;;;;;;;;21.90;76.10;;;;;;4983331;28;19942;-79
2023/07/24 10:00:42;;;;;;;;;;;21.90;76.00;;;;;;4983320;28;20411;-80
2023/07/24 10:03:09;;;;;;;;;;;21.90;75.90;;;;;;4987511;28;20399;-79
2023/07/24 10:05:36;;;;;;;;;;;21.90;76.00;;;;;;4983132;28;19992;-79
2023/07/24 10:08:05;;;;;;;;;;;21.90;76.20;;;;;;4982284;28;21379;-78
2023/07/24 10:10:32;;;;;;;;;;;21.90;76.20;;;;;;4985640;28;21038;-80
2023/07/24 10:12:59;;;;;;;;;;;21.90;76.10;;;;;;4989059;28;20501;-79
2023/07/24 10:15:26;;;;;;;;;;;21.90;76.00;;;;;;4998509;28;20172;-80
2023/07/24 10:18:01;;;;;;;;;;;22.00;76.10;;;;;;4991466;28;20351;-79
2023/07/24 10:20:33;;;;;;;;;;;21.90;76.10;;;;;;4986153;28;20560;-79
2023/07/24 10:23:01;;;;;;;;;;;22.00;76.20;;;;;;4985812;28;19945;-79
2023/07/24 10:25:30;;;;;;;;;;;22.00;76.30;;;;;;4988247;28;19929;-79
2023/07/24 10:28:02;;;;;;;;;;;22.00;76.30;;;;;;4979279;28;19930;-79
2023/07/24 10:30:29;;;;;;;;;;;22.00;76.40;;;;;;4982534;28;20037;-80
2023/07/24 10:33:05;;;;;;;;;;;22.00;76.40;;;;;;4987117;28;20040;-78
2023/07/24 10:35:37;;;;;;;;;;;22.00;76.50;;;;;;4980379;28;19930;-78
2023/07/24 10:38:03;;;;;;;;;;;21.90;76.50;;;;;;4983509;28;19933;-79
2023/07/24 10:40:31;;;;;;;;;;;22.00;76.50;;;;;;4979782;28;19940;-79
2023/07/24 10:43:01;;;;;;;;;;;22.00;76.30;;;;;;4982683;28;19965;-77
2023/07/24 10:45:38;;;;;;;;;;;22.00;76.20;;;;;;4977461;28;19934;-76
2023/07/24 10:48:06;;;;;;;;;;;22.00;76.50;;;;;;4978164;28;19934;-75
2023/07/24 10:50:37;;;;;;;;;;;22.00;76.60;;;;;;4974826;28;19953;-74
2023/07/24 10:53:03;;;;;;;;;;;22.00;76.60;;;;;;4977864;28;19929;-75
2023/07/24 10:55:30;;;;;;;;;;;22.00;76.40;;;;;;4979919;28;19941;-75
2023/07/24 10:57:56;;;;;;;;;;;22.00;76.50;;;;;;4981553;28;19937;-75
2023/07/24 11:00:23;;;;;;;;;;;22.00;77.00;;;;;;4979541;28;19938;-74
2023/07/24 11:02:50;;;;;;;;;;;22.00;77.30;;;;;;4979194;28;19988;-74
2023/07/24 11:05:19;;;;;;;;;;;22.00;77.60;;;;;;4980539;28;19941;-74
2023/07/24 11:07:45;;;;;;;;;;;22.00;77.70;;;;;;4978384;28;19929;-74
2023/07/24 11:10:15;;;;;;;;;;;22.00;77.60;;;;;;4974052;28;20439;-74
2023/07/24 11:12:42;;;;;;;;;;;22.00;77.60;;;;;;4979589;28;19933;-74
2023/07/24 11:15:09;;;;;;;;;;;22.00;77.40;;;;;;4983952;28;19929;-74
2023/07/24 11:17:37;;;;;;;;;;;22.00;77.40;;;;;;4983944;28;20024;-74
2023/07/24 11:20:07;;;;;;;;;;;22.00;77.40;;;;;;4987459;28;19945;-74
2023/07/24 11:22:35;;;;;;;;;;;22.00;77.40;;;;;;4981878;28;19929;-74
2023/07/24 11:25:02;;;;;;;;;;;22.00;77.30;;;;;;4985845;28;19936;-74
2023/07/24 11:27:29;;;;;;;;;;;22.10;77.20;;;;;;4986516;28;20007;-73
2023/07/24 11:29:56;;;;;;;;;;;22.10;77.00;;;;;;4988077;28;20025;-75
2023/07/24 11:32:22;;;;;;;;;;;22.10;76.70;;;;;;4985077;28;19929;-74
2023/07/24 11:34:49;;;;;;;;;;;22.10;76.70;;;;;;4978741;28;19941;-77
2023/07/24 11:37:16;;;;;;;;;;;22.10;76.50;;;;;;4985320;28;19930;-76
2023/07/24 11:39:55;;;;;;;;;;;22.20;76.40;;;;;;4985623;28;19938;-75
2023/07/24 11:42:21;;;;;;;;;;;22.10;76.20;;;;;;4983670;28;19925;-78
2023/07/24 11:44:48;;;;;;;;;;;22.20;76.00;;;;;;4980981;28;19937;-76
2023/07/24 11:47:14;;;;;;;;;;;22.20;75.80;;;;;;4974808;28;19936;-76
2023/07/24 11:49:47;;;;;;;;;;;22.20;75.60;;;;;;4981777;28;19933;-76
2023/07/24 11:52:13;;;;;;;;;;;22.30;75.40;;;;;;4981908;28;20376;-75
2023/07/24 11:54:40;;;;;;;;;;;22.30;75.00;;;;;;4985450;28;19933;-74
2023/07/24 11:57:16;;;;;;;;;;;22.40;74.90;;;;;;4986417;28;20366;-76
2023/07/24 11:59:43;;;;;;;;;;;22.40;74.90;;;;;;4980248;28;19929;-77
2023/07/24 12:02:10;;;;;;;;;;;22.40;74.70;;;;;;4978094;28;19993;-76
2023/07/24 12:04:36;;;;;;;;;;;22.40;74.50;;;;;;4985039;28;20355;-75
2023/07/24 12:07:08;;;;;;;;;;;22.50;74.30;;;;;;4988607;28;19936;-76
2023/07/24 12:09:34;;;;;;;;;;;22.50;74.00;;;;;;4983873;28;19930;-76
2023/07/24 12:12:04;;;;;;;;;;;22.50;73.90;;;;;;4982862;28;20427;-75
2023/07/24 12:14:32;;;;;;;;;;;22.50;73.60;;;;;;4988877;28;19930;-75
2023/07/24 12:17:01;;;;;;;;;;;22.60;73.30;;;;;;4977247;28;19930;-76
2023/07/24 12:19:28;;;;;;;;;;;22.60;73.00;;;;;;4979477;28;19930;-77
2023/07/24 12:21:55;;;;;;;;;;;22.60;72.80;;;;;;4984103;28;19929;-74
2023/07/24 12:24:21;;;;;;;;;;;22.70;72.70;;;;;;4980840;28;20477;-75
2023/07/24 12:26:48;;;;;;;;;;;22.70;72.40;;;;;;4983471;28;19930;-77
2023/07/24 12:29:14;;;;;;;;;;;22.70;72.00;;;;;;4979705;28;20375;-76
2023/07/24 12:31:42;;;;;;;;;;;22.80;71.80;;;;;;4980157;28;19937;-75
2023/07/24 12:34:08;;;;;;;;;;;22.80;71.50;;;;;;4980026;28;20803;-76
2023/07/24 12:36:35;;;;;;;;;;;22.90;71.10;;;;;;4983729;28;19930;-75
2023/07/24 12:39:02;;;;;;;;;;;22.90;70.90;;;;;;4987070;28;19936;-76
2023/07/24 12:41:28;;;;;;;;;;;23.00;70.50;;;;;;4985865;28;19937;-73
2023/07/24 12:43:55;;;;;;;;;;;23.00;70.30;;;;;;4983463;28;19976;-77
2023/07/24 12:46:21;;;;;;;;;;;23.00;70.10;;;;;;4985680;28;19930;-76
2023/07/24 12:48:49;;;;;;;;;;;23.10;69.90;;;;;;4985413;28;19992;-75
2023/07/24 12:51:16;;;;;;;;;;;23.10;69.50;;;;;;4982119;28;19937;-75
2023/07/24 12:53:42;;;;;;;;;;;23.10;69.30;;;;;;4986510;28;19941;-75
2023/07/24 12:56:09;;;;;;;;;;;23.20;69.10;;;;;;4985126;28;20339;-77
2023/07/24 12:58:35;;;;;;;;;;;23.20;68.80;;;;;;4987905;28;20404;-77
2023/07/24 13:01:02;;;;;;;;;;;23.20;68.60;;;;;;4985170;28;19934;-76
2023/07/24 13:03:28;;;;;;;;;;;23.20;68.00;;;;;;4982996;28;19933;-75
2023/07/24 13:05:56;;;;;;;;;;;23.20;67.70;;;;;;4986858;28;19934;-76
2023/07/24 13:08:23;;;;;;;;;;;23.30;67.70;;;;;;4985966;28;19976;-76
2023/07/24 13:10:50;;;;;;;;;;;23.30;67.40;;;;;;4985202;28;19930;-77
2023/07/24 13:13:16;;;;;;;;;;;23.30;67.00;;;;;;4987414;28;19937;-76
2023/07/24 13:15:43;;;;;;;;;;;23.40;66.80;;;;;;4988333;28;19965;-77
2023/07/24 13:18:09;;;;;;;;;;;23.30;66.20;;;;;;4989921;28;19934;-77
2023/07/24 13:20:36;;;;;;;;;;;23.40;66.20;;;;;;4985544;28;19930;-75
2023/07/24 13:23:04;;;;;;;;;;;23.40;66.00;;;;;;4982409;28;19937;-77
2023/07/24 13:25:30;;;;;;;;;;;23.40;65.70;;;;;;4983768;28;19930;-77
2023/07/24 13:27:57;;;;;;;;;;;23.40;65.50;;;;;;4983715;28;19937;-77
2023/07/24 13:30:23;;;;;;;;;;;23.50;65.40;;;;;;4981277;28;19992;-76
2023/07/24 13:32:50;;;;;;;;;;;23.50;65.10;;;;;;4980539;28;20701;-76
2023/07/24 13:35:16;;;;;;;;;;;23.50;65.00;;;;;;4983555;28;19934;-76
2023/07/24 13:37:43;;;;;;;;;;;23.60;65.00;;;;;;4984653;28;19948;-77
2023/07/24 13:40:11;;;;;;;;;;;23.70;64.50;;;;;;4980143;28;20010;-77
2023/07/24 13:42:38;;;;;;;;;;;23.80;64.30;;;;;;4983769;28;19937;-77
2023/07/24 13:45:05;;;;;;;;;;;23.80;63.70;;;;;;4984381;28;19937;-76
2023/07/24 13:47:31;;;;;;;;;;;23.90;63.70;;;;;;4990530;28;19936;-76
2023/07/24 13:49:59;;;;;;;;;;;24.00;63.20;;;;;;4991598;28;19933;-76
2023/07/24 13:52:26;;;;;;;;;;;24.00;63.00;;;;;;4991482;28;19964;-77
2023/07/24 13:54:52;;;;;;;;;;;24.10;62.70;;;;;;4993398;28;19930;-76
2023/07/24 13:57:21;;;;;;;;;;;24.20;62.60;;;;;;4990318;28;19926;-74
2023/07/24 13:59:48;;;;;;;;;;;24.30;62.20;;;;;;4989547;28;20411;-74
2023/07/24 14:02:14;;;;;;;;;;;24.40;62.10;;;;;;5008756;28;19929;-75
2023/07/24 14:04:41;;;;;;;;;;;24.40;61.50;;;;;;5009485;28;19936;-75
2023/07/24 14:07:07;;;;;;;;;;;24.50;61.30;;;;;;5009733;28;20494;-74
2023/07/24 14:09:34;;;;;;;;;;;24.60;61.00;;;;;;5007894;28;19929;-74
2023/07/24 14:12:01;;;;;;;;;;;24.70;60.80;;;;;;5006020;28;19988;-75
2023/07/24 14:14:29;;;;;;;;;;;24.70;60.60;;;;;;5000622;28;19933;-74
2023/07/24 14:16:55;;;;;;;;;;;24.80;60.30;;;;;;4998216;28;19934;-74